sensor_id;sensor_type;location;lat;lon;timestamp;P1;durP1;ratioP1;P2;durP2;ratioP2
6354;SDS011;3210;48.708;9.030;2023-02-22T00:01:31;9.83;;;4.43;;
6354;SDS011;3210;48.708;9.030;2023-02-22T00:04:00;6.27;;;3.33;;
6354;SDS011;3210;48.708;9.030;2023-02-22T00:06:28;7.40;;;3.67;;
6354;SDS011;3210;48.708;9.030;2023-02-22T00:08:56;13.90;;;4.80;;
6354;SDS011;3210;48.708;9.030;2023-02-22T00:11:24;10.60;;;4.60;;
6354;SDS011;3210;48.708;9.030;2023-02-22T00:13:51;8.40;;;3.90;;
6354;SDS011;3210;48.708;9.030;2023-02-22T00:16:21;5.97;;;3.70;;
6354;SDS011;3210;48.708;9.030;2023-02-22T00:18:49;8.47;;;4.00;;
6354;SDS011;3210;48.708;9.030;2023-02-22T00:21:17;6.07;;;4.10;;
6354;SDS011;3210;48.708;9.030;2023-02-22T00:23:45;12.07;;;4.60;;
6354;SDS011;3210;48.708;9.030;2023-02-22T00:26:14;20.83;;;4.37;;
6354;SDS011;3210;48.708;9.030;2023-02-22T00:28:44;6.40;;;3.70;;
6354;SDS011;3210;48.708;9.030;2023-02-22T00:31:12;8.10;;;3.50;;
6354;SDS011;3210;48.708;9.030;2023-02-22T00:33:39;6.80;;;2.90;;
6354;SDS011;3210;48.708;9.030;2023-02-22T00:36:06;7.40;;;3.30;;
6354;SDS011;3210;48.708;9.030;2023-02-22T00:38:34;5.63;;;3.40;;
6354;SDS011;3210;48.708;9.030;2023-02-22T00:41:01;6.97;;;3.57;;
6354;SDS011;3210;48.708;9.030;2023-02-22T00:43:28;14.90;;;4.37;;
6354;SDS011;3210;48.708;9.030;2023-02-22T00:45:56;5.47;;;3.47;;
6354;SDS011;3210;48.708;9.030;2023-02-22T00:48:23;12.30;;;4.57;;
6354;SDS011;3210;48.708;9.030;2023-02-22T00:50:49;7.73;;;3.87;;
6354;SDS011;3210;48.708;9.030;2023-02-22T00:53:19;7.17;;;4.00;;
6354;SDS011;3210;48.708;9.030;2023-02-22T00:55:47;10.70;;;4.00;;
6354;SDS011;3210;48.708;9.030;2023-02-22T00:58:14;9.87;;;3.27;;
6354;SDS011;3210;48.708;9.030;2023-02-22T01:00:42;4.13;;;3.63;;
6354;SDS011;3210;48.708;9.030;2023-02-22T01:03:11;10.33;;;4.83;;
6354;SDS011;3210;48.708;9.030;2023-02-22T01:05:39;12.77;;;3.80;;
6354;SDS011;3210;48.708;9.030;2023-02-22T01:08:07;5.80;;;4.60;;
6354;SDS011;3210;48.708;9.030;2023-02-22T01:10:35;8.30;;;3.30;;
6354;SDS011;3210;48.708;9.030;2023-02-22T01:13:03;5.00;;;4.40;;
6354;SDS011;3210;48.708;9.030;2023-02-22T01:15:32;10.20;;;4.40;;
6354;SDS011;3210;48.708;9.030;2023-02-22T01:18:00;5.63;;;3.43;;
6354;SDS011;3210;48.708;9.030;2023-02-22T01:20:30;14.63;;;4.60;;
6354;SDS011;3210;48.708;9.030;2023-02-22T01:22:57;3.87;;;2.80;;
6354;SDS011;3210;48.708;9.030;2023-02-22T01:25:27;5.50;;;4.07;;
6354;SDS011;3210;48.708;9.030;2023-02-22T01:27:55;13.27;;;4.10;;
6354;SDS011;3210;48.708;9.030;2023-02-22T01:30:24;7.57;;;3.50;;
6354;SDS011;3210;48.708;9.030;2023-02-22T01:32:52;11.70;;;3.83;;
6354;SDS011;3210;48.708;9.030;2023-02-22T01:35:21;10.60;;;4.43;;
6354;SDS011;3210;48.708;9.030;2023-02-22T01:37:50;5.63;;;3.93;;
6354;SDS011;3210;48.708;9.030;2023-02-22T01:40:18;5.90;;;3.70;;
6354;SDS011;3210;48.708;9.030;2023-02-22T01:42:47;7.90;;;4.80;;
6354;SDS011;3210;48.708;9.030;2023-02-22T01:45:37;11.40;;;4.70;;
6354;SDS011;3210;48.708;9.030;2023-02-22T01:48:24;6.80;;;4.33;;
6354;SDS011;3210;48.708;9.030;2023-02-22T01:51:00;13.60;;;4.93;;
6354;SDS011;3210;48.708;9.030;2023-02-22T01:53:37;7.33;;;4.57;;
6354;SDS011;3210;48.708;9.030;2023-02-22T01:56:08;13.90;;;4.93;;
6354;SDS011;3210;48.708;9.030;2023-02-22T01:58:36;10.10;;;4.63;;
6354;SDS011;3210;48.708;9.030;2023-02-22T02:01:06;10.77;;;4.87;;
6354;SDS011;3210;48.708;9.030;2023-02-22T02:03:34;8.17;;;4.90;;
6354;SDS011;3210;48.708;9.030;2023-02-22T02:06:04;6.63;;;4.20;;
6354;SDS011;3210;48.708;9.030;2023-02-22T02:08:37;6.50;;;4.73;;
6354;SDS011;3210;48.708;9.030;2023-02-22T02:11:13;7.60;;;4.70;;
6354;SDS011;3210;48.708;9.030;2023-02-22T02:13:41;8.50;;;4.30;;
6354;SDS011;3210;48.708;9.030;2023-02-22T02:16:08;7.53;;;3.90;;
6354;SDS011;3210;48.708;9.030;2023-02-22T02:18:35;6.43;;;3.67;;
6354;SDS011;3210;48.708;9.030;2023-02-22T02:33:12;9.03;;;4.60;;
6354;SDS011;3210;48.708;9.030;2023-02-22T02:35:48;7.90;;;4.30;;
6354;SDS011;3210;48.708;9.030;2023-02-22T02:38:24;9.03;;;3.80;;
6354;SDS011;3210;48.708;9.030;2023-02-22T02:40:59;8.83;;;5.00;;
6354;SDS011;3210;48.708;9.030;2023-02-22T02:43:33;13.30;;;4.30;;
6354;SDS011;3210;48.708;9.030;2023-02-22T02:46:06;8.47;;;3.87;;
6354;SDS011;3210;48.708;9.030;2023-02-22T02:48:39;7.80;;;4.17;;
6354;SDS011;3210;48.708;9.030;2023-02-22T02:51:10;6.00;;;3.67;;
6354;SDS011;3210;48.708;9.030;2023-02-22T02:53:40;7.80;;;4.20;;
6354;SDS011;3210;48.708;9.030;2023-02-22T02:56:11;9.83;;;3.93;;
6354;SDS011;3210;48.708;9.030;2023-02-22T02:58:42;6.23;;;3.77;;
6354;SDS011;3210;48.708;9.030;2023-02-22T03:01:13;9.37;;;4.80;;
6354;SDS011;3210;48.708;9.030;2023-02-22T03:06:43;7.70;;;4.17;;
6354;SDS011;3210;48.708;9.030;2023-02-22T03:09:23;8.77;;;4.13;;
6354;SDS011;3210;48.708;9.030;2023-02-22T03:12:03;6.17;;;3.93;;
6354;SDS011;3210;48.708;9.030;2023-02-22T03:14:39;6.53;;;3.53;;
6354;SDS011;3210;48.708;9.030;2023-02-22T03:17:13;7.53;;;3.50;;
6354;SDS011;3210;48.708;9.030;2023-02-22T03:19:48;6.40;;;3.83;;
6354;SDS011;3210;48.708;9.030;2023-02-22T03:22:19;9.60;;;4.03;;
6354;SDS011;3210;48.708;9.030;2023-02-22T03:24:52;7.30;;;3.43;;
6354;SDS011;3210;48.708;9.030;2023-02-22T03:27:26;6.13;;;3.80;;
6354;SDS011;3210;48.708;9.030;2023-02-22T03:29:58;9.10;;;4.50;;
6354;SDS011;3210;48.708;9.030;2023-02-22T03:32:29;7.37;;;4.03;;
6354;SDS011;3210;48.708;9.030;2023-02-22T03:35:03;5.73;;;3.83;;
6354;SDS011;3210;48.708;9.030;2023-02-22T03:37:33;9.40;;;5.30;;
6354;SDS011;3210;48.708;9.030;2023-02-22T03:40:04;11.40;;;4.57;;
6354;SDS011;3210;48.708;9.030;2023-02-22T03:42:38;7.30;;;3.80;;
6354;SDS011;3210;48.708;9.030;2023-02-22T03:45:08;9.53;;;4.40;;
6354;SDS011;3210;48.708;9.030;2023-02-22T03:47:39;6.80;;;4.30;;
6354;SDS011;3210;48.708;9.030;2023-02-22T03:50:10;10.30;;;4.50;;
6354;SDS011;3210;48.708;9.030;2023-02-22T03:52:39;13.23;;;4.73;;
6354;SDS011;3210;48.708;9.030;2023-02-22T03:55:08;5.73;;;4.30;;
6354;SDS011;3210;48.708;9.030;2023-02-22T03:57:37;8.77;;;4.40;;
6354;SDS011;3210;48.708;9.030;2023-02-22T04:00:08;8.93;;;3.97;;
6354;SDS011;3210;48.708;9.030;2023-02-22T04:02:38;7.37;;;4.37;;
6354;SDS011;3210;48.708;9.030;2023-02-22T04:05:06;8.70;;;4.17;;
6354;SDS011;3210;48.708;9.030;2023-02-22T04:07:35;17.33;;;4.00;;
6354;SDS011;3210;48.708;9.030;2023-02-22T04:10:02;6.17;;;3.97;;
6354;SDS011;3210;48.708;9.030;2023-02-22T04:12:32;7.97;;;4.77;;
6354;SDS011;3210;48.708;9.030;2023-02-22T04:14:59;6.87;;;3.77;;
6354;SDS011;3210;48.708;9.030;2023-02-22T04:17:26;7.47;;;4.50;;
6354;SDS011;3210;48.708;9.030;2023-02-22T04:19:53;11.57;;;4.60;;
6354;SDS011;3210;48.708;9.030;2023-02-22T04:22:20;7.03;;;4.70;;
6354;SDS011;3210;48.708;9.030;2023-02-22T04:24:48;8.23;;;4.50;;
6354;SDS011;3210;48.708;9.030;2023-02-22T04:27:15;9.23;;;4.70;;
6354;SDS011;3210;48.708;9.030;2023-02-22T04:29:41;8.97;;;4.17;;
6354;SDS011;3210;48.708;9.030;2023-02-22T04:32:08;8.47;;;4.00;;
6354;SDS011;3210;48.708;9.030;2023-02-22T04:34:35;11.70;;;4.90;;
6354;SDS011;3210;48.708;9.030;2023-02-22T04:37:01;6.40;;;4.10;;
6354;SDS011;3210;48.708;9.030;2023-02-22T04:39:28;11.40;;;4.90;;
6354;SDS011;3210;48.708;9.030;2023-02-22T04:41:56;10.87;;;4.67;;
6354;SDS011;3210;48.708;9.030;2023-02-22T04:44:23;7.67;;;5.07;;
6354;SDS011;3210;48.708;9.030;2023-02-22T04:46:50;6.50;;;4.10;;
6354;SDS011;3210;48.708;9.030;2023-02-22T04:49:17;12.63;;;5.07;;
6354;SDS011;3210;48.708;9.030;2023-02-22T04:51:44;11.20;;;4.30;;
6354;SDS011;3210;48.708;9.030;2023-02-22T04:54:11;12.23;;;4.73;;
6354;SDS011;3210;48.708;9.030;2023-02-22T04:56:38;11.37;;;4.63;;
6354;SDS011;3210;48.708;9.030;2023-02-22T04:59:06;5.73;;;4.30;;
6354;SDS011;3210;48.708;9.030;2023-02-22T05:01:36;8.10;;;4.80;;
6354;SDS011;3210;48.708;9.030;2023-02-22T05:04:03;8.53;;;5.17;;
6354;SDS011;3210;48.708;9.030;2023-02-22T05:06:31;14.40;;;5.63;;
6354;SDS011;3210;48.708;9.030;2023-02-22T05:08:58;10.43;;;5.10;;
6354;SDS011;3210;48.708;9.030;2023-02-22T05:11:24;8.50;;;4.97;;
6354;SDS011;3210;48.708;9.030;2023-02-22T05:13:51;10.13;;;4.97;;
6354;SDS011;3210;48.708;9.030;2023-02-22T05:16:19;6.90;;;5.20;;
6354;SDS011;3210;48.708;9.030;2023-02-22T05:18:46;10.00;;;5.73;;
6354;SDS011;3210;48.708;9.030;2023-02-22T05:21:13;11.73;;;5.73;;
6354;SDS011;3210;48.708;9.030;2023-02-22T05:23:39;7.63;;;4.53;;
6354;SDS011;3210;48.708;9.030;2023-02-22T05:26:06;8.53;;;5.90;;
6354;SDS011;3210;48.708;9.030;2023-02-22T05:28:34;6.30;;;4.73;;
6354;SDS011;3210;48.708;9.030;2023-02-22T05:31:01;14.63;;;5.90;;
6354;SDS011;3210;48.708;9.030;2023-02-22T05:33:29;10.70;;;5.60;;
6354;SDS011;3210;48.708;9.030;2023-02-22T05:35:56;24.07;;;9.77;;
6354;SDS011;3210;48.708;9.030;2023-02-22T05:38:22;18.97;;;9.80;;
6354;SDS011;3210;48.708;9.030;2023-02-22T05:40:49;20.67;;;9.77;;
6354;SDS011;3210;48.708;9.030;2023-02-22T05:43:16;15.13;;;7.67;;
6354;SDS011;3210;48.708;9.030;2023-02-22T05:45:43;12.13;;;7.80;;
6354;SDS011;3210;48.708;9.030;2023-02-22T05:48:09;12.47;;;6.70;;
6354;SDS011;3210;48.708;9.030;2023-02-22T05:50:38;7.80;;;5.80;;
6354;SDS011;3210;48.708;9.030;2023-02-22T05:53:05;11.03;;;5.70;;
6354;SDS011;3210;48.708;9.030;2023-02-22T05:55:32;8.63;;;6.07;;
6354;SDS011;3210;48.708;9.030;2023-02-22T05:57:59;13.47;;;5.90;;
6354;SDS011;3210;48.708;9.030;2023-02-22T06:00:26;9.77;;;6.17;;
6354;SDS011;3210;48.708;9.030;2023-02-22T06:02:54;32.77;;;13.67;;
6354;SDS011;3210;48.708;9.030;2023-02-22T06:05:21;109.83;;;46.63;;
6354;SDS011;3210;48.708;9.030;2023-02-22T06:07:50;47.83;;;20.43;;
6354;SDS011;3210;48.708;9.030;2023-02-22T06:10:17;48.77;;;21.97;;
6354;SDS011;3210;48.708;9.030;2023-02-22T06:12:44;24.60;;;11.27;;
6354;SDS011;3210;48.708;9.030;2023-02-22T06:15:10;33.47;;;15.20;;
6354;SDS011;3210;48.708;9.030;2023-02-22T06:17:37;12.50;;;7.50;;
6354;SDS011;3210;48.708;9.030;2023-02-22T06:20:06;12.70;;;7.17;;
6354;SDS011;3210;48.708;9.030;2023-02-22T06:22:33;15.47;;;6.60;;
6354;SDS011;3210;48.708;9.030;2023-02-22T06:25:02;13.53;;;6.23;;
6354;SDS011;3210;48.708;9.030;2023-02-22T06:27:29;12.03;;;6.67;;
6354;SDS011;3210;48.708;9.030;2023-02-22T06:29:56;10.73;;;6.17;;
6354;SDS011;3210;48.708;9.030;2023-02-22T06:32:23;11.13;;;7.00;;
6354;SDS011;3210;48.708;9.030;2023-02-22T06:34:50;11.30;;;6.63;;
6354;SDS011;3210;48.708;9.030;2023-02-22T06:37:17;12.27;;;6.57;;
6354;SDS011;3210;48.708;9.030;2023-02-22T06:39:44;18.53;;;7.40;;
6354;SDS011;3210;48.708;9.030;2023-02-22T06:42:12;10.30;;;6.23;;
6354;SDS011;3210;48.708;9.030;2023-02-22T06:44:39;10.77;;;5.90;;
6354;SDS011;3210;48.708;9.030;2023-02-22T06:47:06;11.83;;;6.80;;
6354;SDS011;3210;48.708;9.030;2023-02-22T06:49:33;8.83;;;5.27;;
6354;SDS011;3210;48.708;9.030;2023-02-22T06:51:59;10.97;;;6.00;;
6354;SDS011;3210;48.708;9.030;2023-02-22T06:54:26;10.83;;;6.10;;
6354;SDS011;3210;48.708;9.030;2023-02-22T06:56:53;11.53;;;5.50;;
6354;SDS011;3210;48.708;9.030;2023-02-22T06:59:21;16.27;;;7.33;;
6354;SDS011;3210;48.708;9.030;2023-02-22T07:01:48;9.57;;;6.23;;
6354;SDS011;3210;48.708;9.030;2023-02-22T07:04:15;11.00;;;5.53;;
6354;SDS011;3210;48.708;9.030;2023-02-22T07:06:44;14.83;;;6.27;;
6354;SDS011;3210;48.708;9.030;2023-02-22T07:09:11;10.00;;;6.33;;
6354;SDS011;3210;48.708;9.030;2023-02-22T07:11:41;12.60;;;6.13;;
6354;SDS011;3210;48.708;9.030;2023-02-22T07:14:08;10.57;;;5.27;;
6354;SDS011;3210;48.708;9.030;2023-02-22T07:16:36;14.77;;;6.93;;
6354;SDS011;3210;48.708;9.030;2023-02-22T07:19:03;12.00;;;6.70;;
6354;SDS011;3210;48.708;9.030;2023-02-22T07:21:30;10.93;;;6.87;;
6354;SDS011;3210;48.708;9.030;2023-02-22T07:23:57;12.37;;;6.60;;
6354;SDS011;3210;48.708;9.030;2023-02-22T07:26:24;12.80;;;7.07;;
6354;SDS011;3210;48.708;9.030;2023-02-22T07:28:51;14.47;;;6.23;;
6354;SDS011;3210;48.708;9.030;2023-02-22T07:31:19;15.70;;;7.30;;
6354;SDS011;3210;48.708;9.030;2023-02-22T07:33:47;19.90;;;7.40;;
6354;SDS011;3210;48.708;9.030;2023-02-22T07:36:14;11.83;;;6.90;;
6354;SDS011;3210;48.708;9.030;2023-02-22T07:38:41;14.30;;;7.47;;
6354;SDS011;3210;48.708;9.030;2023-02-22T07:41:08;15.00;;;7.77;;
6354;SDS011;3210;48.708;9.030;2023-02-22T07:43:35;19.27;;;7.90;;
6354;SDS011;3210;48.708;9.030;2023-02-22T07:46:02;12.17;;;6.80;;
6354;SDS011;3210;48.708;9.030;2023-02-22T07:48:29;12.27;;;6.57;;
6354;SDS011;3210;48.708;9.030;2023-02-22T07:50:58;20.03;;;7.37;;
6354;SDS011;3210;48.708;9.030;2023-02-22T07:53:25;16.57;;;7.30;;
6354;SDS011;3210;48.708;9.030;2023-02-22T07:55:55;13.00;;;7.27;;
6354;SDS011;3210;48.708;9.030;2023-02-22T07:58:23;20.30;;;8.00;;
6354;SDS011;3210;48.708;9.030;2023-02-22T08:00:51;17.63;;;6.90;;
6354;SDS011;3210;48.708;9.030;2023-02-22T08:03:19;24.50;;;7.67;;
6354;SDS011;3210;48.708;9.030;2023-02-22T08:05:48;25.37;;;7.80;;
6354;SDS011;3210;48.708;9.030;2023-02-22T08:08:17;23.07;;;8.17;;
6354;SDS011;3210;48.708;9.030;2023-02-22T08:10:44;18.60;;;7.53;;
6354;SDS011;3210;48.708;9.030;2023-02-22T08:13:11;16.43;;;7.20;;
6354;SDS011;3210;48.708;9.030;2023-02-22T08:15:39;10.27;;;7.07;;
6354;SDS011;3210;48.708;9.030;2023-02-22T08:18:08;13.20;;;6.53;;
6354;SDS011;3210;48.708;9.030;2023-02-22T08:20:37;10.53;;;7.83;;
6354;SDS011;3210;48.708;9.030;2023-02-22T08:23:06;15.17;;;8.70;;
6354;SDS011;3210;48.708;9.030;2023-02-22T08:25:35;23.00;;;10.50;;
6354;SDS011;3210;48.708;9.030;2023-02-22T08:28:03;14.30;;;6.80;;
6354;SDS011;3210;48.708;9.030;2023-02-22T08:30:32;15.40;;;7.10;;
6354;SDS011;3210;48.708;9.030;2023-02-22T08:33:00;12.37;;;6.70;;
6354;SDS011;3210;48.708;9.030;2023-02-22T08:35:28;17.20;;;7.50;;
6354;SDS011;3210;48.708;9.030;2023-02-22T08:37:56;15.23;;;6.00;;
6354;SDS011;3210;48.708;9.030;2023-02-22T08:40:25;13.53;;;6.30;;
6354;SDS011;3210;48.708;9.030;2023-02-22T08:42:54;9.83;;;5.37;;
6354;SDS011;3210;48.708;9.030;2023-02-22T08:45:21;10.63;;;6.97;;
6354;SDS011;3210;48.708;9.030;2023-02-22T08:47:48;13.60;;;7.10;;
6354;SDS011;3210;48.708;9.030;2023-02-22T08:50:16;11.57;;;5.83;;
6354;SDS011;3210;48.708;9.030;2023-02-22T08:52:44;11.60;;;5.97;;
6354;SDS011;3210;48.708;9.030;2023-02-22T08:55:11;13.40;;;6.00;;
6354;SDS011;3210;48.708;9.030;2023-02-22T08:57:37;13.17;;;5.87;;
6354;SDS011;3210;48.708;9.030;2023-02-22T09:00:06;15.07;;;5.60;;
6354;SDS011;3210;48.708;9.030;2023-02-22T09:02:34;16.90;;;6.30;;
6354;SDS011;3210;48.708;9.030;2023-02-22T09:05:00;18.03;;;7.43;;
6354;SDS011;3210;48.708;9.030;2023-02-22T09:07:29;9.67;;;6.00;;
6354;SDS011;3210;48.708;9.030;2023-02-22T09:09:56;23.63;;;6.60;;
6354;SDS011;3210;48.708;9.030;2023-02-22T09:12:23;13.70;;;7.60;;
6354;SDS011;3210;48.708;9.030;2023-02-22T09:14:50;14.07;;;5.60;;
6354;SDS011;3210;48.708;9.030;2023-02-22T09:17:18;13.70;;;6.67;;
6354;SDS011;3210;48.708;9.030;2023-02-22T09:19:45;10.50;;;5.57;;
6354;SDS011;3210;48.708;9.030;2023-02-22T09:22:11;12.57;;;6.10;;
6354;SDS011;3210;48.708;9.030;2023-02-22T09:24:38;13.63;;;6.23;;
6354;SDS011;3210;48.708;9.030;2023-02-22T09:27:07;7.90;;;5.47;;
6354;SDS011;3210;48.708;9.030;2023-02-22T09:29:34;9.50;;;5.47;;
6354;SDS011;3210;48.708;9.030;2023-02-22T09:32:01;11.80;;;6.60;;
6354;SDS011;3210;48.708;9.030;2023-02-22T09:34:30;27.03;;;5.80;;
6354;SDS011;3210;48.708;9.030;2023-02-22T09:36:59;11.03;;;5.03;;
6354;SDS011;3210;48.708;9.030;2023-02-22T09:39:26;19.60;;;5.43;;
6354;SDS011;3210;48.708;9.030;2023-02-22T09:42:05;18.27;;;6.20;;
6354;SDS011;3210;48.708;9.030;2023-02-22T09:44:38;13.63;;;5.80;;
6354;SDS011;3210;48.708;9.030;2023-02-22T09:47:11;16.93;;;6.03;;
6354;SDS011;3210;48.708;9.030;2023-02-22T09:49:46;9.90;;;5.00;;
6354;SDS011;3210;48.708;9.030;2023-02-22T09:52:23;24.00;;;5.20;;
6354;SDS011;3210;48.708;9.030;2023-02-22T09:54:54;11.17;;;5.57;;
6354;SDS011;3210;48.708;9.030;2023-02-22T09:57:31;9.90;;;5.10;;
6354;SDS011;3210;48.708;9.030;2023-02-22T10:00:01;14.83;;;4.90;;
6354;SDS011;3210;48.708;9.030;2023-02-22T10:02:37;12.20;;;5.30;;
6354;SDS011;3210;48.708;9.030;2023-02-22T10:05:11;15.80;;;6.33;;
6354;SDS011;3210;48.708;9.030;2023-02-22T10:07:45;18.80;;;6.00;;
6354;SDS011;3210;48.708;9.030;2023-02-22T10:10:16;10.77;;;5.03;;
6354;SDS011;3210;48.708;9.030;2023-02-22T10:12:46;6.70;;;4.60;;
6354;SDS011;3210;48.708;9.030;2023-02-22T10:21:19;6.73;;;4.00;;
6354;SDS011;3210;48.708;9.030;2023-02-22T10:24:08;12.13;;;4.67;;
6354;SDS011;3210;48.708;9.030;2023-02-22T10:26:44;8.83;;;5.00;;
6354;SDS011;3210;48.708;9.030;2023-02-22T10:29:13;15.33;;;3.23;;
6354;SDS011;3210;48.708;9.030;2023-02-22T10:31:47;13.70;;;3.60;;
6354;SDS011;3210;48.708;9.030;2023-02-22T10:34:18;7.30;;;3.43;;
6354;SDS011;3210;48.708;9.030;2023-02-22T10:36:52;13.80;;;4.10;;
6354;SDS011;3210;48.708;9.030;2023-02-22T10:39:24;15.37;;;3.90;;
6354;SDS011;3210;48.708;9.030;2023-02-22T10:41:54;5.53;;;3.60;;
6354;SDS011;3210;48.708;9.030;2023-02-22T10:44:22;7.80;;;4.17;;
6354;SDS011;3210;48.708;9.030;2023-02-22T10:46:50;14.50;;;5.37;;
6354;SDS011;3210;48.708;9.030;2023-02-22T10:49:19;5.90;;;2.80;;
6354;SDS011;3210;48.708;9.030;2023-02-22T10:51:50;8.80;;;3.20;;
6354;SDS011;3210;48.708;9.030;2023-02-22T10:54:25;3.77;;;3.20;;
6354;SDS011;3210;48.708;9.030;2023-02-22T10:56:56;8.43;;;3.20;;
6354;SDS011;3210;48.708;9.030;2023-02-22T10:59:28;13.43;;;4.40;;
6354;SDS011;3210;48.708;9.030;2023-02-22T11:01:58;5.73;;;3.27;;
6354;SDS011;3210;48.708;9.030;2023-02-22T11:04:25;3.50;;;2.47;;
6354;SDS011;3210;48.708;9.030;2023-02-22T11:07:15;6.40;;;3.43;;
6354;SDS011;3210;48.708;9.030;2023-02-22T11:09:45;5.40;;;3.13;;
6354;SDS011;3210;48.708;9.030;2023-02-22T11:12:16;11.00;;;3.10;;
6354;SDS011;3210;48.708;9.030;2023-02-22T11:14:45;9.17;;;4.00;;
6354;SDS011;3210;48.708;9.030;2023-02-22T11:17:15;18.10;;;4.30;;
6354;SDS011;3210;48.708;9.030;2023-02-22T11:19:45;17.10;;;3.73;;
6354;SDS011;3210;48.708;9.030;2023-02-22T11:22:19;14.73;;;3.50;;
6354;SDS011;3210;48.708;9.030;2023-02-22T11:24:49;6.00;;;2.70;;
6354;SDS011;3210;48.708;9.030;2023-02-22T11:27:21;8.60;;;3.83;;
6354;SDS011;3210;48.708;9.030;2023-02-22T11:29:53;10.30;;;3.97;;
6354;SDS011;3210;48.708;9.030;2023-02-22T11:32:23;6.20;;;3.17;;
6354;SDS011;3210;48.708;9.030;2023-02-22T11:34:50;12.20;;;3.17;;
6354;SDS011;3210;48.708;9.030;2023-02-22T11:37:28;13.93;;;3.17;;
6354;SDS011;3210;48.708;9.030;2023-02-22T11:40:04;5.23;;;3.20;;
6354;SDS011;3210;48.708;9.030;2023-02-22T11:42:36;8.00;;;3.90;;
6354;SDS011;3210;48.708;9.030;2023-02-22T11:45:07;5.67;;;3.63;;
6354;SDS011;3210;48.708;9.030;2023-02-22T11:47:44;6.47;;;3.50;;
6354;SDS011;3210;48.708;9.030;2023-02-22T11:50:20;7.40;;;3.70;;
6354;SDS011;3210;48.708;9.030;2023-02-22T11:52:56;10.83;;;4.27;;
6354;SDS011;3210;48.708;9.030;2023-02-22T11:55:47;12.00;;;3.67;;
6354;SDS011;3210;48.708;9.030;2023-02-22T11:58:26;9.67;;;4.13;;
6354;SDS011;3210;48.708;9.030;2023-02-22T12:01:00;7.30;;;3.87;;
6354;SDS011;3210;48.708;9.030;2023-02-22T12:03:36;4.17;;;3.30;;
6354;SDS011;3210;48.708;9.030;2023-02-22T12:06:34;11.43;;;5.00;;
6354;SDS011;3210;48.708;9.030;2023-02-22T12:09:12;9.83;;;4.37;;
6354;SDS011;3210;48.708;9.030;2023-02-22T12:11:49;8.90;;;5.07;;
6354;SDS011;3210;48.708;9.030;2023-02-22T12:14:25;8.57;;;4.60;;
6354;SDS011;3210;48.708;9.030;2023-02-22T12:19:48;5.53;;;4.73;;
6354;SDS011;3210;48.708;9.030;2023-02-22T12:22:18;7.30;;;4.43;;
6354;SDS011;3210;48.708;9.030;2023-02-22T12:24:52;5.77;;;4.40;;
6354;SDS011;3210;48.708;9.030;2023-02-22T12:27:24;7.27;;;4.50;;
6354;SDS011;3210;48.708;9.030;2023-02-22T12:29:57;14.10;;;6.43;;
6354;SDS011;3210;48.708;9.030;2023-02-22T12:32:28;8.57;;;4.67;;
6354;SDS011;3210;48.708;9.030;2023-02-22T12:35:02;9.27;;;5.33;;
6354;SDS011;3210;48.708;9.030;2023-02-22T12:37:41;9.37;;;5.30;;
6354;SDS011;3210;48.708;9.030;2023-02-22T12:40:19;8.73;;;5.10;;
6354;SDS011;3210;48.708;9.030;2023-02-22T12:42:52;8.37;;;4.80;;
6354;SDS011;3210;48.708;9.030;2023-02-22T12:45:25;11.73;;;5.53;;
6354;SDS011;3210;48.708;9.030;2023-02-22T12:47:59;11.70;;;6.13;;
6354;SDS011;3210;48.708;9.030;2023-02-22T12:50:35;12.07;;;5.97;;
6354;SDS011;3210;48.708;9.030;2023-02-22T12:53:05;10.03;;;6.43;;
6354;SDS011;3210;48.708;9.030;2023-02-22T12:55:39;9.20;;;6.90;;
6354;SDS011;3210;48.708;9.030;2023-02-22T12:58:15;11.80;;;6.43;;
6354;SDS011;3210;48.708;9.030;2023-02-22T13:00:47;17.77;;;5.50;;
6354;SDS011;3210;48.708;9.030;2023-02-22T13:03:26;10.70;;;5.80;;
6354;SDS011;3210;48.708;9.030;2023-02-22T13:06:00;11.00;;;7.13;;
6354;SDS011;3210;48.708;9.030;2023-02-22T13:08:40;10.93;;;6.97;;
6354;SDS011;3210;48.708;9.030;2023-02-22T13:11:23;11.87;;;6.27;;
6354;SDS011;3210;48.708;9.030;2023-02-22T13:14:01;10.90;;;6.13;;
6354;SDS011;3210;48.708;9.030;2023-02-22T13:16:41;9.70;;;6.67;;
6354;SDS011;3210;48.708;9.030;2023-02-22T13:19:19;10.70;;;6.77;;
6354;SDS011;3210;48.708;9.030;2023-02-22T13:21:56;10.67;;;7.50;;
6354;SDS011;3210;48.708;9.030;2023-02-22T13:24:27;13.17;;;7.00;;
6354;SDS011;3210;48.708;9.030;2023-02-22T13:27:03;14.33;;;6.93;;
6354;SDS011;3210;48.708;9.030;2023-02-22T13:29:36;17.53;;;7.80;;
6354;SDS011;3210;48.708;9.030;2023-02-22T13:32:12;14.73;;;8.13;;
6354;SDS011;3210;48.708;9.030;2023-02-22T13:34:54;12.73;;;7.13;;
6354;SDS011;3210;48.708;9.030;2023-02-22T13:37:46;16.90;;;6.50;;
6354;SDS011;3210;48.708;9.030;2023-02-22T13:40:43;10.70;;;7.20;;
6354;SDS011;3210;48.708;9.030;2023-02-22T13:43:29;11.87;;;7.30;;
6354;SDS011;3210;48.708;9.030;2023-02-22T13:46:20;12.67;;;7.20;;
6354;SDS011;3210;48.708;9.030;2023-02-22T13:49:03;16.40;;;8.67;;
6354;SDS011;3210;48.708;9.030;2023-02-22T13:51:47;11.10;;;6.63;;
6354;SDS011;3210;48.708;9.030;2023-02-22T13:54:17;25.53;;;9.23;;
6354;SDS011;3210;48.708;9.030;2023-02-22T13:56:49;15.77;;;7.20;;
6354;SDS011;3210;48.708;9.030;2023-02-22T13:59:23;13.17;;;7.47;;
6354;SDS011;3210;48.708;9.030;2023-02-22T14:01:54;11.70;;;8.00;;
6354;SDS011;3210;48.708;9.030;2023-02-22T14:10:36;11.17;;;6.60;;
6354;SDS011;3210;48.708;9.030;2023-02-22T14:13:12;21.93;;;8.20;;
6354;SDS011;3210;48.708;9.030;2023-02-22T14:18:44;21.87;;;9.83;;
6354;SDS011;3210;48.708;9.030;2023-02-22T14:21:14;13.40;;;8.10;;
6354;SDS011;3210;48.708;9.030;2023-02-22T14:23:43;11.30;;;6.47;;
6354;SDS011;3210;48.708;9.030;2023-02-22T14:26:13;17.17;;;8.03;;
6354;SDS011;3210;48.708;9.030;2023-02-22T14:28:46;16.20;;;8.57;;
6354;SDS011;3210;48.708;9.030;2023-02-22T14:31:21;14.10;;;9.13;;
6354;SDS011;3210;48.708;9.030;2023-02-22T14:33:56;16.40;;;7.80;;
6354;SDS011;3210;48.708;9.030;2023-02-22T14:36:26;11.17;;;7.53;;
6354;SDS011;3210;48.708;9.030;2023-02-22T14:39:00;14.00;;;7.00;;
6354;SDS011;3210;48.708;9.030;2023-02-22T14:41:35;12.33;;;7.37;;
6354;SDS011;3210;48.708;9.030;2023-02-22T14:44:03;13.40;;;7.67;;
6354;SDS011;3210;48.708;9.030;2023-02-22T14:46:38;13.97;;;6.87;;
6354;SDS011;3210;48.708;9.030;2023-02-22T14:49:08;12.37;;;6.60;;
6354;SDS011;3210;48.708;9.030;2023-02-22T14:51:43;9.60;;;7.30;;
6354;SDS011;3210;48.708;9.030;2023-02-22T14:54:20;17.73;;;7.03;;
6354;SDS011;3210;48.708;9.030;2023-02-22T14:56:53;12.80;;;7.00;;
6354;SDS011;3210;48.708;9.030;2023-02-22T14:59:38;12.93;;;7.90;;
6354;SDS011;3210;48.708;9.030;2023-02-22T15:02:17;12.90;;;8.10;;
6354;SDS011;3210;48.708;9.030;2023-02-22T15:04:50;17.10;;;8.47;;
6354;SDS011;3210;48.708;9.030;2023-02-22T15:07:23;11.80;;;7.27;;
6354;SDS011;3210;48.708;9.030;2023-02-22T15:10:03;9.20;;;6.23;;
6354;SDS011;3210;48.708;9.030;2023-02-22T15:12:32;14.60;;;6.83;;
6354;SDS011;3210;48.708;9.030;2023-02-22T15:17:52;8.77;;;5.90;;
6354;SDS011;3210;48.708;9.030;2023-02-22T15:20:20;17.33;;;8.63;;
6354;SDS011;3210;48.708;9.030;2023-02-22T15:22:49;11.93;;;7.07;;
6354;SDS011;3210;48.708;9.030;2023-02-22T15:25:21;16.50;;;7.53;;
6354;SDS011;3210;48.708;9.030;2023-02-22T15:27:50;10.90;;;6.97;;
6354;SDS011;3210;48.708;9.030;2023-02-22T15:30:18;14.47;;;7.20;;
6354;SDS011;3210;48.708;9.030;2023-02-22T15:32:50;11.00;;;7.07;;
6354;SDS011;3210;48.708;9.030;2023-02-22T15:35:23;11.50;;;7.13;;
6354;SDS011;3210;48.708;9.030;2023-02-22T15:37:59;16.80;;;7.70;;
6354;SDS011;3210;48.708;9.030;2023-02-22T15:40:27;12.50;;;6.53;;
6354;SDS011;3210;48.708;9.030;2023-02-22T15:42:57;9.87;;;7.03;;
6354;SDS011;3210;48.708;9.030;2023-02-22T15:45:26;11.07;;;6.57;;
6354;SDS011;3210;48.708;9.030;2023-02-22T15:47:57;15.97;;;6.47;;
6354;SDS011;3210;48.708;9.030;2023-02-22T15:50:25;14.93;;;6.50;;
6354;SDS011;3210;48.708;9.030;2023-02-22T15:52:53;13.23;;;7.10;;
6354;SDS011;3210;48.708;9.030;2023-02-22T15:55:24;12.53;;;6.37;;
6354;SDS011;3210;48.708;9.030;2023-02-22T15:57:53;15.43;;;7.70;;
6354;SDS011;3210;48.708;9.030;2023-02-22T16:00:22;13.30;;;7.60;;
6354;SDS011;3210;48.708;9.030;2023-02-22T16:02:55;17.00;;;7.57;;
6354;SDS011;3210;48.708;9.030;2023-02-22T16:05:27;12.30;;;7.13;;